Stampa

METAR LIMF - Aeroporto di Roma Fiumicino FCO

Station name not available

Aug 21, 2019 - 09:20 PM EDT / 2019.08.22 0120 UTC

Wind: from the E (090 degrees) at 3 MPH (3 KT):0

Visibility: 3 mile(s):0

Sky conditions: mostly clear

Weather: patches of fog

Temperature: 71 F (22 C)

Dew Point: 71 F (22 C)

Relative Humidity: 100%

Pressure (altimeter): 30.03 in. Hg (1017 hPa)

ob: LIRF 220120Z 09003KT 5000 BCFG FEW008 22/22 Q1017 BECMG 1200 BCFG

cycle: 1

 Dati METAR in tempo reale | Fonte: NOAA

Valuta questo articolo

1 1 1 1 1 1 1 1 1 1 Valutazione 0.00 (0 Voti)

hits
176
Ritieni il contenuto di questa pagina incompleto, non attendibile oppure oggetto di altre problematiche? INVIA UNA SEGNALAZIONE Grazie!